Terminal Aerodrome Forecast
Issued by NWS Spokane, WA

Home | Current Version | Previous Version | Text Only | Print | Product List | Glossary On
Versions: 1 2 3 4 5 6 7 8 9 10 11 12 13 14 15 16 17 18 19 20 21 22 23 24 25 26 27 28 29 30 31 32 33 34 35 36
000
FTUS46 KOTX 301720
TAFGEG
TAF
KGEG 301720Z 3018/3118 03004KT 1/4SM FZFG VV002
     FM302100 36002KT 1/2SM FG OVC002
     FM310100 22002KT 3SM BR OVC003
     FM310600 25003KT 1SM -FZDZ BR OVC005=

USA.gov is the U.S. government's official web portal to all federal, state and local government web resources and services.